createdAt,value
2022-12-25T00:05:59.151Z,7
2022-12-25T00:16:29.373Z,6
2022-12-25T00:30:04.993Z,7
2022-12-25T00:31:19.145Z,7
2022-12-25T02:02:31.118Z,3
2022-12-25T02:04:59.211Z,3
2022-12-25T03:25:30.938Z,3
2022-12-25T03:27:59.203Z,3
2022-12-25T03:36:00.999Z,3
2022-12-25T03:38:29.249Z,2
2022-12-25T03:47:08.508Z,3
2022-12-25T05:04:31.039Z,2
2022-12-25T05:06:59.272Z,2
2022-12-25T05:15:01.114Z,3
2022-12-25T05:17:29.326Z,2
2022-12-25T05:21:48.759Z,2
2022-12-25T05:27:59.795Z,3
2022-12-25T05:36:38.721Z,3
2022-12-25T06:14:16.579Z,3
2022-12-25T06:54:31.016Z,2
2022-12-25T06:56:28.811Z,3
2022-12-25T07:18:16.607Z,2
2022-12-25T08:16:31.095Z,2
2022-12-25T08:18:59.289Z,2
2022-12-25T09:42:06.493Z,3
2022-12-25T10:16:16.752Z,3
2022-12-25T10:17:16.738Z,3
2022-12-25T10:20:17.519Z,5
2022-12-25T10:21:16.684Z,5
2022-12-25T10:22:16.690Z,4
2022-12-25T10:25:16.737Z,4
2022-12-25T10:26:16.743Z,3
2022-12-25T10:28:16.690Z,3
2022-12-25T10:29:16.795Z,3
2022-12-25T10:31:16.875Z,3
2022-12-25T10:33:17.503Z,3
2022-12-25T10:34:16.795Z,3
2022-12-25T10:35:16.792Z,3
2022-12-25T10:36:16.770Z,3
2022-12-25T10:37:16.800Z,3
2022-12-25T10:40:16.824Z,3
2022-12-25T10:41:16.878Z,3
2022-12-25T10:42:16.819Z,3
2022-12-25T10:45:16.961Z,3
2022-12-25T10:46:31.139Z,3
2022-12-25T10:48:59.344Z,3
2022-12-25T10:50:13.454Z,3
2022-12-25T10:59:29.394Z,3
2022-12-25T11:03:48.884Z,3
2022-12-25T11:06:17.465Z,3
2022-12-25T11:10:04.612Z,3
2022-12-25T11:11:13.311Z,3
2022-12-25T11:12:29.420Z,4
2022-12-25T11:13:16.650Z,4
2022-12-25T11:14:16.663Z,3
2022-12-25T11:15:16.665Z,4
2022-12-25T11:17:16.657Z,4
2022-12-25T11:19:16.659Z,4
2022-12-25T11:21:16.664Z,4
2022-12-25T11:23:16.667Z,4
2022-12-25T11:24:16.659Z,4
2022-12-25T11:26:17.092Z,4
2022-12-25T11:27:16.678Z,3
2022-12-25T11:29:16.658Z,3
2022-12-25T11:30:16.677Z,3
2022-12-25T11:31:16.772Z,3
2022-12-25T11:32:16.666Z,3
2022-12-25T11:34:16.667Z,3
2022-12-25T11:35:16.660Z,3
2022-12-25T11:37:16.662Z,3
2022-12-25T11:38:16.663Z,3
2022-12-25T11:39:16.681Z,3
2022-12-25T11:40:16.677Z,3
2022-12-25T11:42:16.667Z,3
2022-12-25T11:43:16.649Z,3
2022-12-25T11:44:16.679Z,3
2022-12-25T11:45:16.735Z,3
2022-12-25T11:46:16.735Z,3
2022-12-25T11:48:16.656Z,3
2022-12-25T11:50:16.669Z,3
2022-12-25T11:51:16.671Z,3
2022-12-25T11:53:16.653Z,3
2022-12-25T11:54:16.663Z,3
2022-12-25T11:55:16.848Z,3
2022-12-25T11:58:16.711Z,3
2022-12-25T11:59:18.507Z,3
2022-12-25T12:01:16.799Z,3
2022-12-25T12:02:16.848Z,3
2022-12-25T12:03:16.833Z,3
2022-12-25T12:04:16.726Z,3
2022-12-25T12:07:16.725Z,3
2022-12-25T12:09:16.722Z,3
2022-12-25T12:10:16.725Z,3
2022-12-25T12:11:16.801Z,3
2022-12-25T12:12:16.804Z,3
2022-12-25T12:14:16.811Z,3
2022-12-25T12:15:16.817Z,3
2022-12-25T12:16:16.864Z,3
2022-12-25T12:17:16.803Z,3
2022-12-25T12:19:16.812Z,3
2022-12-25T12:20:16.824Z,3
2022-12-25T12:22:16.809Z,3
2022-12-25T12:23:16.801Z,3
2022-12-25T12:24:16.818Z,4
2022-12-25T12:25:16.822Z,3
2022-12-25T12:27:17.005Z,3
2022-12-25T12:28:31.121Z,3
2022-12-25T12:30:59.392Z,3
2022-12-25T12:32:13.547Z,3
2022-12-25T12:39:01.177Z,4
2022-12-25T12:41:29.434Z,4
2022-12-25T12:45:48.912Z,3
2022-12-25T12:50:08.693Z,3
2022-12-25T12:54:16.687Z,4
2022-12-25T12:55:16.709Z,4
2022-12-25T12:56:16.711Z,4
2022-12-25T12:57:16.695Z,4
2022-12-25T13:02:16.817Z,4
2022-12-25T13:03:16.743Z,4
2022-12-25T13:04:16.707Z,4
2022-12-25T13:05:16.696Z,5
2022-12-25T13:07:16.700Z,5
2022-12-25T13:10:16.717Z,6
2022-12-25T13:11:16.720Z,6
2022-12-25T13:12:16.702Z,5
2022-12-25T13:13:16.702Z,6
2022-12-25T13:15:16.737Z,6
2022-12-25T13:16:16.750Z,6
2022-12-25T13:17:16.700Z,6
2022-12-25T13:20:16.700Z,5
2022-12-25T13:21:16.719Z,5
2022-12-25T13:23:16.688Z,5
2022-12-25T13:24:16.712Z,5
2022-12-25T13:25:16.705Z,5
2022-12-25T13:26:16.714Z,4
2022-12-25T13:28:16.703Z,5
2022-12-25T13:29:16.712Z,4
2022-12-25T13:30:16.708Z,4
2022-12-25T13:31:16.777Z,5
2022-12-25T13:34:16.706Z,5
2022-12-25T13:36:16.753Z,5
2022-12-25T13:37:16.774Z,5
2022-12-25T13:38:16.785Z,5
2022-12-25T13:39:16.777Z,5
2022-12-25T13:41:16.754Z,5
2022-12-25T13:42:16.772Z,4
2022-12-25T13:44:16.777Z,5
2022-12-25T13:45:16.770Z,5
2022-12-25T13:47:16.770Z,5
2022-12-25T13:48:16.768Z,5
2022-12-25T13:49:16.801Z,5
2022-12-25T13:50:16.763Z,5
2022-12-25T13:52:16.845Z,6
2022-12-25T13:53:16.869Z,5
2022-12-25T13:55:16.844Z,5
2022-12-25T13:56:16.875Z,6
2022-12-25T13:57:16.844Z,6
2022-12-25T13:58:16.854Z,6
2022-12-25T14:00:16.856Z,7
2022-12-25T14:01:16.994Z,6
2022-12-25T14:04:16.859Z,7
2022-12-25T14:05:16.846Z,7
2022-12-25T14:06:16.863Z,6
2022-12-25T14:08:17.072Z,6
2022-12-25T14:09:31.181Z,7
2022-12-25T14:11:59.410Z,7
2022-12-25T14:13:13.536Z,7
2022-12-25T14:22:29.465Z,5
2022-12-25T14:26:48.902Z,6
2022-12-25T14:29:19.722Z,5
2022-12-25T14:32:59.252Z,6
2022-12-25T14:35:21.331Z,5
2022-12-25T14:38:16.759Z,5
2022-12-25T14:39:16.723Z,5
2022-12-25T14:40:16.744Z,5
2022-12-25T14:43:16.736Z,5
2022-12-25T14:44:17.456Z,5
2022-12-25T14:45:16.739Z,5
2022-12-25T14:46:16.788Z,5
2022-12-25T14:48:22.879Z,5
2022-12-25T14:49:16.745Z,5
2022-12-25T14:50:16.751Z,5
2022-12-25T14:51:16.744Z,5
2022-12-25T14:53:16.759Z,5
2022-12-25T14:54:16.741Z,5
2022-12-25T14:57:16.757Z,5
2022-12-25T14:58:16.744Z,5
2022-12-25T14:59:16.753Z,5
2022-12-25T15:01:16.877Z,5
2022-12-25T15:02:16.821Z,5
2022-12-25T15:04:16.748Z,5
2022-12-25T15:05:16.717Z,5
2022-12-25T15:06:16.811Z,5
2022-12-25T15:07:16.740Z,5
2022-12-25T15:09:16.767Z,5
2022-12-25T15:10:58.169Z,5
2022-12-25T15:11:16.757Z,5
2022-12-25T15:12:16.741Z,5
2022-12-25T15:14:16.744Z,5
2022-12-25T15:15:16.787Z,5
2022-12-25T15:17:16.814Z,5
2022-12-25T15:19:20.561Z,5
2022-12-25T15:20:16.905Z,5
2022-12-25T15:22:16.791Z,5
2022-12-25T15:23:19.797Z,5
2022-12-25T15:25:16.787Z,6
2022-12-25T15:27:16.786Z,6
2022-12-25T15:28:16.775Z,6
2022-12-25T15:30:16.865Z,6
2022-12-25T15:31:16.903Z,7
2022-12-25T15:32:16.891Z,7
2022-12-25T15:35:20.027Z,7
2022-12-25T15:36:16.887Z,8
2022-12-25T15:38:16.874Z,7
2022-12-25T15:39:16.978Z,8
2022-12-25T15:40:16.886Z,8
2022-12-25T15:41:16.895Z,8
2022-12-25T15:43:40.427Z,8
2022-12-25T15:44:16.905Z,8
2022-12-25T15:46:22.343Z,7
2022-12-25T15:51:18.735Z,6
2022-12-25T15:57:29.347Z,6
2022-12-25T16:01:48.873Z,6
2022-12-25T16:05:31.178Z,6
2022-12-25T16:07:22.728Z,6
2022-12-25T16:12:19.274Z,6
2022-12-25T16:16:01.733Z,6
2022-12-25T16:17:15.826Z,6
2022-12-25T16:22:12.357Z,5
2022-12-25T16:28:16.777Z,6
2022-12-25T16:29:16.779Z,5
2022-12-25T16:31:16.839Z,6
2022-12-25T16:33:16.783Z,6
2022-12-25T16:34:16.779Z,6
2022-12-25T16:36:19.425Z,6
2022-12-25T16:39:16.791Z,5
2022-12-25T16:40:16.779Z,6
2022-12-25T16:41:16.784Z,6
2022-12-25T16:44:16.780Z,5
2022-12-25T16:45:16.775Z,5
2022-12-25T16:46:16.855Z,5
2022-12-25T16:48:16.780Z,6
2022-12-25T16:50:16.800Z,5
2022-12-25T16:51:16.783Z,6
2022-12-25T16:52:16.810Z,5
2022-12-25T16:53:16.789Z,6
2022-12-25T16:55:16.779Z,6
2022-12-25T16:56:16.779Z,6
2022-12-25T16:59:16.791Z,6
2022-12-25T17:00:16.778Z,5
2022-12-25T17:01:16.879Z,6
2022-12-25T17:04:16.816Z,6
2022-12-25T17:05:16.780Z,6
2022-12-25T17:06:16.805Z,5
2022-12-25T17:09:16.851Z,6
2022-12-25T17:11:16.842Z,6
2022-12-25T17:12:16.845Z,6
2022-12-25T17:13:16.836Z,6
2022-12-25T17:14:16.842Z,6
2022-12-25T17:17:16.869Z,5
2022-12-25T17:18:16.842Z,6
2022-12-25T17:19:16.845Z,6
2022-12-25T17:21:16.835Z,6
2022-12-25T17:22:16.837Z,6
2022-12-25T17:26:16.949Z,6
2022-12-25T17:27:16.919Z,5
2022-12-25T17:29:20.116Z,6
2022-12-25T17:32:16.927Z,5
2022-12-25T17:33:16.946Z,6
2022-12-25T17:34:16.968Z,6
2022-12-25T17:37:16.949Z,6
2022-12-25T17:38:17.125Z,6
2022-12-25T17:39:31.247Z,6
2022-12-25T17:41:59.483Z,6
2022-12-25T17:43:18.986Z,6
2022-12-25T17:52:29.549Z,5
2022-12-25T17:56:49.449Z,5
2022-12-25T18:00:29.768Z,5
2022-12-25T18:02:16.946Z,5
2022-12-25T18:05:16.847Z,5
2022-12-25T18:06:16.807Z,5
2022-12-25T18:07:16.827Z,5
2022-12-25T18:09:16.813Z,5
2022-12-25T18:10:16.803Z,6
2022-12-25T18:13:16.809Z,6
2022-12-25T18:14:16.805Z,6
2022-12-25T18:15:16.819Z,6
2022-12-25T18:19:16.801Z,6
2022-12-25T18:20:16.809Z,6
2022-12-25T18:23:16.808Z,7
2022-12-25T18:25:16.812Z,7
2022-12-25T18:26:16.825Z,7
2022-12-25T18:27:16.827Z,7
2022-12-25T18:30:16.814Z,7
2022-12-25T18:31:16.948Z,7
2022-12-25T18:35:16.884Z,7
2022-12-25T18:36:16.821Z,7
2022-12-25T18:38:16.856Z,7
2022-12-25T18:40:16.819Z,6
2022-12-25T18:41:16.825Z,6
2022-12-25T18:43:16.878Z,6
2022-12-25T18:44:16.866Z,5
2022-12-25T18:47:16.871Z,6
2022-12-25T18:49:16.868Z,6
2022-12-25T18:50:16.873Z,6
2022-12-25T18:51:16.882Z,6
2022-12-25T18:52:49.976Z,6
2022-12-25T18:54:16.867Z,6
2022-12-25T18:55:16.884Z,5
2022-12-25T18:57:16.857Z,5
2022-12-25T18:59:16.973Z,6
2022-12-25T19:00:16.967Z,6
2022-12-25T19:02:17.089Z,6
2022-12-25T19:05:16.955Z,5
2022-12-25T19:06:16.969Z,6
2022-12-25T19:07:16.987Z,5
2022-12-25T19:10:16.967Z,5
2022-12-25T19:11:16.958Z,5
2022-12-25T19:12:16.971Z,6
2022-12-25T19:15:17.148Z,6
2022-12-25T19:16:31.381Z,6
2022-12-25T19:18:59.519Z,6
2022-12-25T19:20:13.643Z,6
2022-12-25T19:29:29.579Z,6
2022-12-25T19:33:49.011Z,6
2022-12-25T19:38:08.851Z,6
2022-12-25T19:42:16.839Z,6
2022-12-25T19:44:16.841Z,6
2022-12-25T19:45:16.845Z,6
2022-12-25T19:47:16.842Z,5
2022-12-25T19:48:16.853Z,5
2022-12-25T19:50:16.866Z,6
2022-12-25T19:52:16.844Z,6
2022-12-25T19:53:16.854Z,6
2022-12-25T19:55:16.869Z,6
2022-12-25T19:58:16.882Z,6
2022-12-25T19:59:16.845Z,6
2022-12-25T20:01:16.920Z,6
2022-12-25T20:03:16.888Z,6
2022-12-25T20:04:16.857Z,6
2022-12-25T20:06:16.849Z,6
2022-12-25T20:07:16.854Z,6
2022-12-25T20:08:16.850Z,6
2022-12-25T20:09:20.615Z,6
2022-12-25T20:11:16.847Z,6
2022-12-25T20:13:16.876Z,6
2022-12-25T20:14:16.900Z,6
2022-12-25T20:16:16.901Z,6
2022-12-25T20:19:16.882Z,7
2022-12-25T20:20:16.873Z,7
2022-12-25T20:21:16.865Z,7
2022-12-25T20:24:16.923Z,6
2022-12-25T20:25:16.909Z,7
2022-12-25T20:26:16.907Z,8
2022-12-25T20:27:16.929Z,8
2022-12-25T20:29:16.957Z,8
2022-12-25T20:30:16.914Z,8
2022-12-25T20:32:16.943Z,9
2022-12-25T20:33:16.909Z,9
2022-12-25T20:34:16.909Z,9
2022-12-25T20:35:16.908Z,8
2022-12-25T20:37:16.918Z,10
2022-12-25T20:38:16.994Z,9
2022-12-25T20:40:17.025Z,9
2022-12-25T20:42:17.005Z,9
2022-12-25T20:43:17.004Z,9
2022-12-25T20:46:17.090Z,10
2022-12-25T20:47:16.999Z,9
2022-12-25T20:48:16.997Z,11
2022-12-25T20:51:17.013Z,10
2022-12-25T20:52:17.000Z,10
2022-12-25T20:53:17.000Z,10
2022-12-25T20:54:17.013Z,11
2022-12-25T20:56:31.313Z,10
2022-12-25T20:58:59.605Z,10
2022-12-25T21:00:13.696Z,10
2022-12-25T21:07:01.367Z,10
2022-12-25T21:09:29.615Z,8
2022-12-25T21:13:49.061Z,8
2022-12-25T21:17:59.279Z,8
2022-12-25T21:20:16.878Z,8
2022-12-25T21:21:16.890Z,7
2022-12-25T21:22:16.885Z,6
2022-12-25T21:26:16.882Z,7
2022-12-25T21:27:16.883Z,6
2022-12-25T21:28:16.900Z,7
2022-12-25T21:31:17.024Z,6
2022-12-25T21:33:17.258Z,7
2022-12-25T21:34:16.878Z,7
2022-12-25T21:35:16.888Z,6
2022-12-25T21:39:16.891Z,7
2022-12-25T21:43:16.881Z,7
2022-12-25T21:47:16.897Z,7
2022-12-25T21:49:16.890Z,6
2022-12-25T21:50:16.889Z,7
2022-12-25T21:52:16.890Z,6
2022-12-25T21:53:16.897Z,6
2022-12-25T21:54:16.935Z,7
2022-12-25T21:57:16.927Z,6
2022-12-25T22:00:16.943Z,6
2022-12-25T22:01:17.222Z,7
2022-12-25T22:03:17.014Z,7
2022-12-25T22:05:16.938Z,6
2022-12-25T22:06:21.458Z,6
2022-12-25T22:08:16.934Z,7
2022-12-25T22:10:16.954Z,7
2022-12-25T22:11:16.949Z,6
2022-12-25T22:13:17.054Z,6
2022-12-25T22:14:16.971Z,7
2022-12-25T22:15:16.946Z,7
2022-12-25T22:16:17.031Z,7
2022-12-25T22:18:17.028Z,7
2022-12-25T22:21:17.031Z,7
2022-12-25T22:22:17.031Z,6
2022-12-25T22:24:17.095Z,6
2022-12-25T22:26:20.853Z,6
2022-12-25T22:27:17.033Z,6
2022-12-25T22:28:17.029Z,6
2022-12-25T22:32:17.052Z,6
2022-12-25T22:37:05.539Z,6
2022-12-25T22:38:19.637Z,5
2022-12-25T22:42:02.028Z,6
2022-12-25T22:43:16.146Z,6
2022-12-25T22:44:30.255Z,5
2022-12-25T22:48:49.691Z,6
2022-12-25T22:52:32.095Z,5
2022-12-25T22:59:20.223Z,5
2022-12-25T23:03:02.687Z,5
2022-12-25T23:04:16.705Z,4
2022-12-25T23:07:59.143Z,4
2022-12-25T23:09:15.353Z,4
2022-12-25T23:11:08.745Z,5
2022-12-25T23:11:29.064Z,5
2022-12-25T23:12:16.913Z,4
2022-12-25T23:15:16.958Z,4
2022-12-25T23:16:16.984Z,4
2022-12-25T23:17:16.938Z,4
2022-12-25T23:19:16.925Z,5
2022-12-25T23:20:16.929Z,4
2022-12-25T23:22:16.922Z,4
2022-12-25T23:24:16.921Z,4
2022-12-25T23:25:16.936Z,5
2022-12-25T23:27:16.930Z,4
2022-12-25T23:28:16.929Z,4
2022-12-25T23:29:16.924Z,4
2022-12-25T23:30:16.950Z,4
2022-12-25T23:32:16.931Z,4
2022-12-25T23:33:16.926Z,3
2022-12-25T23:35:16.930Z,4
2022-12-25T23:36:16.937Z,4
2022-12-25T23:38:16.960Z,4
2022-12-25T23:40:16.941Z,4
2022-12-25T23:43:16.941Z,4
2022-12-25T23:48:16.928Z,4
2022-12-25T23:49:16.935Z,4
2022-12-25T23:50:16.937Z,4
2022-12-25T23:51:16.937Z,4
2022-12-25T23:55:16.980Z,4
2022-12-25T23:56:16.984Z,4
2022-12-25T23:59:16.984Z,3
